Time;durP1;ratioP1;P1;durP2;ratioP2;P2;SDS_P1;SDS_P2;PMS_P1;PMS_P2;Temp;Humidity;BMP_temperature;BMP_pressure;BME280_temperature;BME280_humidity;BME280_pressure;Samples;Min_cycle;Max_cycle;Signal;HPM_P1;HPM_P2
2021/12/17 00:01:46;;;;;;;13.48;10.07;;;;;;;0.77;100.00;97802.69;5049698;28;24481;-76
2021/12/17 00:04:26;;;;;;;26.83;11.38;;;;;;;0.85;100.00;97809.56;5032652;28;24428;-76
2021/12/17 00:06:54;;;;;;;17.05;10.43;;;;;;;0.89;100.00;97813.00;5032348;28;24435;-76
2021/12/17 00:09:20;;;;;;;12.40;10.20;;;;;;;0.80;100.00;97807.81;5045987;28;24506;-76
2021/12/17 00:11:47;;;;;;;10.77;9.65;;;;;;;0.81;100.00;97794.22;5036531;28;25011;-76
2021/12/17 00:14:21;;;;;;;10.75;9.35;;;;;;;0.77;100.00;97795.03;5047127;28;24442;-76
2021/12/17 00:16:48;;;;;;;10.18;9.07;;;;;;;0.76;100.00;97803.53;5036450;28;24535;-76
2021/12/17 00:19:23;;;;;;;11.60;9.45;;;;;;;0.76;100.00;97786.53;5051083;28;24455;-76
2021/12/17 00:49:25;;;;;;;13.75;12.23;;;;;;;1.14;100.00;97791.91;5041746;28;24806;-76
2021/12/17 00:51:59;;;;;;;13.27;11.57;;;;;;;1.23;100.00;97792.84;5045272;28;24442;-76
2021/12/17 00:54:32;;;;;;;13.05;11.65;;;;;;;1.31;100.00;97786.09;5032239;28;24868;-76
2021/12/17 00:57:03;;;;;;;13.07;11.57;;;;;;;1.29;100.00;97790.31;5035339;28;24661;-76
2021/12/17 00:59:30;;;;;;;12.77;11.40;;;;;;;1.29;100.00;97787.75;5032052;28;24455;-76
2021/12/17 01:01:59;;;;;;;12.73;11.23;;;;;;;1.30;100.00;97785.22;5047067;28;24435;-76
2021/12/17 01:04:26;;;;;;;14.80;12.60;;;;;;;1.19;100.00;97777.50;5048721;28;25056;-76
2021/12/17 01:06:53;;;;;;;16.67;13.75;;;;;;;1.25;100.00;97788.59;5038480;28;24833;-76
2021/12/17 01:09:25;;;;;;;15.90;12.68;;;;;;;1.30;100.00;97782.69;5041139;28;24442;-76
2021/12/17 01:11:52;;;;;;;18.17;13.48;;;;;;;1.22;100.00;97779.19;5034204;28;24527;-75
2021/12/17 01:14:21;;;;;;;18.20;13.50;;;;;;;1.25;100.00;97771.56;5040287;28;24543;-76
2021/12/17 01:16:50;;;;;;;19.08;14.68;;;;;;;1.14;100.00;97781.72;5051228;28;24415;-76
2021/12/17 01:19:24;;;;;;;14.40;12.98;;;;;;;1.28;100.00;97780.94;5050024;28;24481;-76
2021/12/17 01:22:12;;;;;;;15.15;13.00;;;;;;;1.31;100.00;97778.41;5051381;28;24444;-76
2021/12/17 01:24:45;;;;;;;13.35;12.05;;;;;;;1.19;100.00;97772.41;5045691;28;25067;-76
2021/12/17 01:35:30;;;;;;;13.57;12.05;;;;;;;1.38;100.00;97759.75;5009111;28;24439;-76
2021/12/17 01:41:02;;;;;;;13.73;12.23;;;;;;;1.28;100.00;97745.22;5035157;28;26162;-76
2021/12/17 01:43:32;;;;;;;13.85;10.73;;;;;;;1.29;100.00;97749.47;5031075;28;24436;-76
2021/12/17 01:46:02;;;;;;;16.33;12.07;;;;;;;1.17;100.00;97751.09;5041515;28;24439;-75
2021/12/17 01:48:37;;;;;;;13.85;11.77;;;;;;;1.35;100.00;97747.81;5037699;28;24482;-76
2021/12/17 01:56:50;;;;;;;11.02;9.98;;;;;;;1.41;100.00;97758.06;5036675;28;24802;-76
2021/12/17 01:59:32;;;;;;;11.30;10.07;;;;;;;1.38;100.00;97752.09;5031254;28;24456;-76
2021/12/17 02:02:04;;;;;;;12.10;10.53;;;;;;;1.48;100.00;97763.19;5032890;28;24494;-76
2021/12/17 02:04:32;;;;;;;14.75;11.80;;;;;;;1.48;100.00;97773.38;5045106;28;24538;-76
2021/12/17 02:07:00;;;;;;;12.02;10.82;;;;;;;1.50;100.00;97774.28;5031851;28;25019;-76
2021/12/17 02:12:37;;;;;;;12.55;10.90;;;;;;;1.42;100.00;97767.41;4987015;28;25013;-76
2021/12/17 02:21:20;;;;;;;12.27;10.90;;;;;;;1.60;100.00;97771.78;5030994;28;24777;-76
2021/12/17 02:29:53;;;;;;;12.68;11.38;;;;;;;1.79;100.00;97753.97;5041280;28;24478;-76
2021/12/17 02:32:21;;;;;;;13.65;12.25;;;;;;;1.88;100.00;97748.88;5046160;28;24438;-76
2021/12/17 02:35:03;;;;;;;11.88;10.60;;;;;;;1.89;100.00;97745.47;5030659;28;24494;-76
2021/12/17 02:37:33;;;;;;;14.15;10.57;;;;;;;1.80;100.00;97755.66;5046512;28;24450;-76
2021/12/17 02:40:14;;;;;;;11.55;10.35;;;;;;;1.69;100.00;97743.69;5046670;28;25082;-76
2021/12/17 02:45:32;;;;;;;11.65;10.43;;;;;;;1.70;100.00;97742.84;5033068;28;24476;-76
2021/12/17 02:45:37;;;;;;;12.10;10.23;;;;;;;1.83;100.00;97737.78;5049442;28;24481;-76
2021/12/17 02:48:07;;;;;;;10.77;9.65;;;;;;;1.87;100.00;97731.84;5063492;22;25092;-72
2021/12/17 02:50:36;;;;;;;12.55;10.20;;;;;;;1.87;100.00;97726.72;5048020;28;24442;-72
2021/12/17 02:53:07;;;;;;;10.95;9.40;;;;;;;1.91;100.00;97728.44;5032903;28;24443;-72
2021/12/17 02:55:35;;;;;;;10.13;9.13;;;;;;;1.89;100.00;97715.69;5041649;28;24440;-72
2021/12/17 02:58:02;;;;;;;12.55;9.52;;;;;;;1.89;100.00;97714.78;5030420;28;24464;-72
2021/12/17 03:00:29;;;;;;;10.20;9.20;;;;;;;1.92;100.00;97714.81;5046812;28;24816;-72
2021/12/17 03:02:56;;;;;;;9.23;8.32;;;;;;;1.97;100.00;97699.50;5049691;28;24459;-72
2021/12/17 03:05:26;;;;;;;10.50;9.30;;;;;;;1.98;100.00;97709.72;5049334;28;24446;-72
2021/12/17 03:07:52;;;;;;;11.45;9.82;;;;;;;1.98;100.00;97703.75;5049899;28;24475;-72
2021/12/17 03:10:20;;;;;;;11.95;9.88;;;;;;;1.98;100.00;97699.50;5050202;28;24434;-72
2021/12/17 03:12:50;;;;;;;12.18;9.80;;;;;;;1.99;100.00;97698.66;5049906;28;24442;-71
2021/12/17 03:15:25;;;;;;;11.60;10.43;;;;;;;1.98;100.00;97704.59;5049374;28;24820;-71
2021/12/17 03:18:29;;;;;;;14.68;10.82;;;;;;;2.04;100.00;97704.63;5049238;28;24474;-72
2021/12/17 03:23:43;;;;;;;13.90;12.05;;;;;;;2.06;100.00;97705.47;5049570;28;24438;-72
2021/12/17 03:26:13;;;;;;;12.85;11.55;;;;;;;2.16;100.00;97714.03;5049116;28;24435;-72
2021/12/17 03:28:41;;;;;;;12.38;11.07;;;;;;;2.16;100.00;97716.56;5049245;28;24438;-72
2021/12/17 03:31:08;;;;;;;12.85;11.07;;;;;;;2.16;100.00;97711.47;5049176;28;24431;-72
2021/12/17 03:33:38;;;;;;;13.73;11.07;;;;;;;2.12;100.00;97713.16;5049400;28;24439;-72
2021/12/17 03:36:05;;;;;;;11.98;10.80;;;;;;;2.20;100.00;97704.66;5049403;28;24441;-72
2021/12/17 03:38:31;;;;;;;11.82;10.68;;;;;;;2.33;100.00;97717.44;5049079;28;25019;-72
2021/12/17 03:41:18;;;;;;;12.50;10.98;;;;;;;2.62;100.00;97706.34;5042401;28;24430;-72
2021/12/17 03:43:48;;;;;;;11.18;10.07;;;;;;;2.50;100.00;97709.78;5051921;28;24501;-72
2021/12/17 03:46:15;;;;;;;12.93;10.48;;;;;;;2.48;100.00;97701.22;5052830;28;24432;-72
2021/12/17 03:48:42;;;;;;;12.88;10.90;;;;;;;2.48;100.00;97698.69;5052828;28;24980;-72
2021/12/17 03:51:13;;;;;;;12.52;10.70;;;;;;;2.50;100.00;97703.81;5052629;28;24435;-72
2021/12/17 03:53:42;;;;;;;11.73;10.63;;;;;;;2.60;100.00;97701.25;5052719;28;24445;-72
2021/12/17 03:56:08;;;;;;;11.55;10.27;;;;;;;2.71;100.00;97700.38;5048683;28;24442;-72
2021/12/17 03:58:35;;;;;;;13.10;10.63;;;;;;;2.63;100.00;97713.16;5052542;28;24504;-72
2021/12/17 04:01:04;;;;;;;12.07;10.93;;;;;;;2.62;100.00;97707.22;5052606;28;24984;-72
2021/12/17 04:03:31;;;;;;;11.98;10.65;;;;;;;2.72;100.00;97700.38;5049099;28;24427;-72
2021/12/17 04:05:57;;;;;;;12.50;10.95;;;;;;;2.73;100.00;97703.78;5051592;28;24481;-72
2021/12/17 04:08:24;;;;;;;12.90;11.07;;;;;;;2.70;100.00;97706.34;5051789;28;24439;-72
2021/12/17 04:11:01;;;;;;;11.20;10.00;;;;;;;2.70;100.00;97711.47;5052718;28;24442;-72
2021/12/17 04:13:33;;;;;;;10.73;9.63;;;;;;;2.74;100.00;97706.34;5052318;28;24992;-72
2021/12/17 04:16:02;;;;;;;11.40;10.20;;;;;;;2.91;100.00;97704.63;5052288;28;24435;-72
2021/12/17 04:18:31;;;;;;;11.13;10.02;;;;;;;3.21;100.00;97712.25;5051633;28;24505;-72
2021/12/17 04:20:59;;;;;;;10.25;8.27;;;;;;;3.48;100.00;97708.72;5052257;28;24476;-72
2021/12/17 04:23:26;;;;;;;9.05;7.80;;;;;;;3.71;100.00;97714.63;5051675;28;24435;-72
2021/12/17 04:25:52;;;;;;;8.98;8.07;;;;;;;3.87;100.00;97716.25;5045211;28;24435;-72
2021/12/17 04:28:20;;;;;;;9.57;8.68;;;;;;;3.92;100.00;97718.78;5052295;28;24435;-72
2021/12/17 04:30:48;;;;;;;8.88;7.97;;;;;;;3.86;100.00;97717.13;5043587;28;24443;-72
2021/12/17 04:33:15;;;;;;;10.20;7.75;;;;;;;3.94;100.00;97722.19;5051632;28;24793;-72
2021/12/17 04:35:43;;;;;;;9.40;8.50;;;;;;;3.97;100.00;97718.75;5035850;28;24468;-72
2021/12/17 04:38:11;;;;;;;9.63;8.57;;;;;;;3.91;100.00;97726.50;5052065;28;24439;-72
2021/12/17 04:40:41;;;;;;;9.80;8.80;;;;;;;3.80;100.00;97716.28;5051504;28;24498;-72
2021/12/17 04:43:23;;;;;;;9.00;8.10;;;;;;;3.62;100.00;97715.50;5051838;28;24991;-72
2021/12/17 04:45:58;;;;;;;7.97;7.20;;;;;;;3.90;100.00;97710.25;5038122;28;24446;-72
2021/12/17 04:59:22;;;;;;;11.07;9.88;;;;;;;3.82;100.00;97714.56;5051723;28;24900;-72
2021/12/17 05:01:49;;;;;;;13.80;10.32;;;;;;;3.79;100.00;97712.88;5051581;28;24454;-72
2021/12/17 05:04:15;;;;;;;10.05;9.02;;;;;;;3.53;100.00;97705.31;5051227;28;24447;-72
2021/12/17 05:06:43;;;;;;;10.00;9.00;;;;;;;3.88;100.00;97712.81;5051382;28;24447;-72
2021/12/17 05:09:19;;;;;;;10.13;9.13;;;;;;;3.80;100.00;97701.75;5051616;28;24466;-72
2021/12/17 05:19:58;;;;;;;9.70;8.73;;;;;;;3.30;100.00;97679.78;5051001;28;24457;-72
2021/12/17 05:22:28;;;;;;;9.30;8.40;;;;;;;3.46;100.00;97697.66;5050769;28;24533;-72
2021/12/17 05:24:55;;;;;;;8.80;7.90;;;;;;;3.83;100.00;97695.78;5050876;28;24462;-72
2021/12/17 05:27:21;;;;;;;8.02;7.32;;;;;;;3.75;100.00;97698.38;5050953;28;24447;-72
2021/12/17 05:29:48;;;;;;;7.95;7.15;;;;;;;3.62;100.00;97691.59;5051109;28;24508;-72
2021/12/17 05:32:14;;;;;;;7.65;7.00;;;;;;;3.70;100.00;97697.53;5050919;28;24840;-72
2021/12/17 05:34:41;;;;;;;8.95;6.85;;;;;;;3.95;100.00;97698.25;5050537;28;24497;-72
2021/12/17 05:37:07;;;;;;;6.60;6.07;;;;;;;3.99;100.00;97692.25;5050594;28;24485;-72
2021/12/17 05:39:35;;;;;;;6.72;6.03;;;;;;;4.03;100.00;97696.50;5050448;28;24482;-72
2021/12/17 05:42:01;;;;;;;8.38;6.20;;;;;;;3.97;100.00;97699.13;5050505;28;24967;-72
2021/12/17 05:44:28;;;;;;;8.75;7.10;;;;;;;3.97;100.00;97694.00;5051002;28;24435;-72
2021/12/17 05:46:54;;;;;;;8.15;7.38;;;;;;;3.63;100.00;97689.06;5050417;28;24500;-72
2021/12/17 05:49:23;;;;;;;6.97;6.28;;;;;;;3.58;100.00;97684.78;5049947;28;24435;-72
2021/12/17 05:51:50;;;;;;;7.75;7.05;;;;;;;3.56;100.00;97689.06;5053275;28;24860;-72
2021/12/17 05:54:18;;;;;;;8.13;7.47;;;;;;;3.39;100.00;97695.13;5052827;28;24481;-73
2021/12/17 05:56:46;;;;;;;9.10;8.20;;;;;;;3.60;100.00;97693.34;5052004;28;24442;-72
2021/12/17 05:59:13;;;;;;;10.35;6.90;;;;;;;3.55;100.00;97693.31;5050258;28;25002;-72
2021/12/17 06:01:40;;;;;;;8.60;7.22;;;;;;;3.54;100.00;97688.22;5050270;28;24828;-72
2021/12/17 06:04:06;;;;;;;6.60;6.00;;;;;;;3.55;100.00;97675.41;5039786;28;24434;-72
2021/12/17 06:06:34;;;;;;;6.32;5.72;;;;;;;3.51;100.00;97675.44;5049569;28;25218;-73
2021/12/17 06:09:04;;;;;;;5.57;5.07;;;;;;;3.87;100.00;97672.69;5047189;28;25030;-72
2021/12/17 06:11:30;;;;;;;5.20;4.72;;;;;;;3.92;100.00;97676.91;5039647;28;24469;-72
2021/12/17 06:13:58;;;;;;;5.72;5.13;;;;;;;3.88;100.00;97688.91;5050701;28;24442;-71
2021/12/17 06:16:25;;;;;;;5.78;5.22;;;;;;;3.79;100.00;97696.66;5050435;28;24446;-72
2021/12/17 06:18:51;;;;;;;8.80;7.22;;;;;;;3.72;100.00;97688.13;5050111;28;24520;-72
2021/12/17 06:21:19;;;;;;;6.27;5.67;;;;;;;3.68;100.00;97688.16;5049327;28;24434;-72
2021/12/17 06:23:45;;;;;;;6.53;5.93;;;;;;;3.42;100.00;97678.03;5050346;28;24443;-72
2021/12/17 06:26:12;;;;;;;7.00;6.30;;;;;;;3.40;100.00;97676.31;5049405;28;24439;-72
2021/12/17 06:28:38;;;;;;;6.78;6.18;;;;;;;3.47;100.00;97677.16;5050354;28;24992;-72
2021/12/17 06:31:06;;;;;;;7.03;6.32;;;;;;;3.48;100.00;97675.44;5049938;28;24459;-72
2021/12/17 06:33:32;;;;;;;7.00;6.35;;;;;;;3.50;100.00;97676.28;5038658;28;24513;-71
2021/12/17 06:35:59;;;;;;;7.57;6.38;;;;;;;3.37;100.00;97673.78;5043704;28;24546;-70
2021/12/17 06:38:25;;;;;;;7.18;6.47;;;;;;;3.59;100.00;97671.09;5049709;28;24435;-72
2021/12/17 06:40:53;;;;;;;7.82;7.03;;;;;;;3.52;100.00;97672.88;5050399;28;24509;-71
2021/12/17 06:43:23;;;;;;;6.70;6.10;;;;;;;3.31;100.00;97663.56;5050521;28;24442;-71
2021/12/17 06:45:55;;;;;;;7.25;6.43;;;;;;;3.30;100.00;97667.00;5050131;28;24442;-71
2021/12/17 06:48:26;;;;;;;7.20;6.60;;;;;;;3.27;100.00;97668.72;5049595;28;24439;-71
2021/12/17 06:59:20;;;;;;;5.97;5.40;;;;;;;3.90;100.00;97691.47;5049990;28;24462;-71
2021/12/17 07:10:29;;;;;;;7.05;6.45;;;;;;;3.48;100.00;97698.50;5029880;28;24912;-71
2021/12/17 07:40:37;;;;;;;7.30;6.70;;;;;;;3.78;100.00;97734.25;5037097;28;24458;-71
2021/12/17 07:43:11;;;;;;;7.93;7.10;;;;;;;3.75;100.00;97747.06;5053392;28;24535;-71
2021/12/17 07:45:37;;;;;;;8.67;7.83;;;;;;;3.79;100.00;97748.75;5053585;28;24518;-71
2021/12/17 07:48:04;;;;;;;9.65;7.53;;;;;;;3.75;100.00;97749.63;5053104;28;24818;-71
2021/12/17 07:50:31;;;;;;;7.00;6.30;;;;;;;3.74;100.00;97747.06;5053400;28;24450;-71
2021/12/17 07:52:59;;;;;;;6.90;6.20;;;;;;;3.76;100.00;97743.66;5053364;28;24439;-71
2021/12/17 07:55:25;;;;;;;7.03;6.35;;;;;;;3.77;100.00;97754.75;5053287;28;24461;-71
2021/12/17 07:57:52;;;;;;;8.50;6.55;;;;;;;3.73;100.00;97755.63;5053036;28;25045;-72
2021/12/17 08:00:18;;;;;;;7.40;6.70;;;;;;;3.59;100.00;97750.53;5052956;28;25215;-72
2021/12/17 08:02:44;;;;;;;8.05;7.30;;;;;;;3.61;100.00;97749.69;5052713;28;24435;-72
2021/12/17 08:05:11;;;;;;;7.68;6.97;;;;;;;3.54;100.00;97748.00;5052786;28;24438;-73
2021/12/17 08:07:37;;;;;;;8.20;7.07;;;;;;;3.26;100.00;97748.94;5052536;28;24432;-73
2021/12/17 08:10:06;;;;;;;6.70;6.00;;;;;;;3.39;100.00;97753.16;5053016;28;24477;-72
2021/12/17 08:12:32;;;;;;;7.40;6.70;;;;;;;3.61;100.00;97751.41;5053122;28;24423;-72
2021/12/17 08:14:59;;;;;;;8.07;7.28;;;;;;;3.75;100.00;97753.91;5052777;28;24438;-72
2021/12/17 08:17:43;;;;;;;9.35;6.70;;;;;;;3.66;100.00;97754.78;5052651;28;24432;-73
2021/12/17 08:23:49;;;;;;;7.60;6.80;;;;;;;3.26;100.00;97743.81;5046807;28;24435;-72
2021/12/17 08:26:15;;;;;;;6.85;6.15;;;;;;;3.33;100.00;97741.22;5052125;28;25206;-72
2021/12/17 08:28:54;;;;;;;6.53;5.87;;;;;;;3.51;100.00;97744.59;5052239;28;24476;-72
2021/12/17 08:31:21;;;;;;;7.20;6.50;;;;;;;3.77;100.00;97752.19;5052523;28;24524;-72
2021/12/17 08:33:48;;;;;;;6.70;6.10;;;;;;;4.00;100.00;97759.75;5052864;28;24431;-72
2021/12/17 08:36:15;;;;;;;7.45;6.18;;;;;;;3.88;100.00;97760.69;5052206;28;24443;-72
2021/12/17 08:38:42;;;;;;;8.70;6.53;;;;;;;3.73;100.00;97755.63;5052023;28;24471;-72
2021/12/17 08:41:10;;;;;;;6.70;6.00;;;;;;;3.62;100.00;97758.22;5051992;28;24521;-72
2021/12/17 08:43:36;;;;;;;7.93;7.13;;;;;;;3.79;100.00;97761.59;5052251;28;24431;-72
2021/12/17 08:46:03;;;;;;;8.27;7.32;;;;;;;3.77;100.00;97758.16;5051994;28;24438;-72
2021/12/17 08:48:30;;;;;;;7.43;6.75;;;;;;;3.93;100.00;97761.53;5052588;28;24443;-72
2021/12/17 08:50:57;;;;;;;6.93;6.22;;;;;;;3.99;100.00;97763.19;5051843;28;24424;-74
2021/12/17 08:53:23;;;;;;;8.07;7.28;;;;;;;3.88;100.00;97765.81;5052298;28;24923;-72
2021/12/17 08:55:50;;;;;;;7.65;6.25;;;;;;;3.75;100.00;97767.56;5051432;28;25004;-71
2021/12/17 08:58:18;;;;;;;9.07;6.97;;;;;;;3.83;100.00;97767.53;5051645;28;24435;-71
2021/12/17 09:00:46;;;;;;;6.57;6.03;;;;;;;3.98;100.00;97770.03;5050849;28;24463;-71
2021/12/17 09:03:13;;;;;;;7.60;6.90;;;;;;;3.91;100.00;97770.06;5051770;28;24439;-71
2021/12/17 09:05:41;;;;;;;6.90;6.30;;;;;;;3.93;100.00;97784.59;5051589;28;24435;-72
2021/12/17 09:08:09;;;;;;;8.60;7.80;;;;;;;3.84;100.00;97782.06;5051221;28;25080;-71
2021/12/17 09:10:36;;;;;;;9.25;7.53;;;;;;;3.83;100.00;97785.50;5051810;28;24439;-72
2021/12/17 09:13:03;;;;;;;8.50;7.55;;;;;;;3.71;100.00;97778.69;5051540;28;25002;-71
2021/12/17 09:15:31;;;;;;;7.38;6.78;;;;;;;3.86;100.00;97780.34;5051220;28;24489;-72
2021/12/17 09:17:58;;;;;;;8.47;7.77;;;;;;;3.72;100.00;97782.13;5051906;28;24793;-71
2021/12/17 09:20:24;;;;;;;8.68;7.78;;;;;;;3.52;100.00;97782.16;5031605;28;24793;-71
2021/12/17 09:22:52;;;;;;;8.18;7.35;;;;;;;3.81;100.00;97774.38;5037220;28;24470;-71
2021/12/17 09:25:19;;;;;;;12.47;8.00;;;;;;;3.73;100.00;97781.25;5051453;28;24454;-71
2021/12/17 09:27:46;;;;;;;8.43;7.65;;;;;;;3.78;100.00;97790.63;5050707;28;24505;-71
2021/12/17 09:30:14;;;;;;;12.73;8.57;;;;;;;3.96;100.00;97787.13;5050889;28;24434;-71
2021/12/17 09:32:43;;;;;;;8.10;7.30;;;;;;;4.42;100.00;97786.91;5051221;28;24439;-71
2021/12/17 09:35:11;;;;;;;8.63;7.82;;;;;;;4.51;100.00;97781.69;5034975;28;24480;-72
2021/12/17 09:37:38;;;;;;;9.13;8.23;;;;;;;4.70;100.00;97786.69;5050874;28;24442;-72
2021/12/17 09:40:08;;;;;;;8.45;7.55;;;;;;;4.82;100.00;97779.78;5050271;28;24447;-72
2021/12/17 09:42:35;;;;;;;8.43;7.50;;;;;;;4.93;100.00;97778.81;5041785;28;24451;-72
2021/12/17 09:45:04;;;;;;;8.95;8.15;;;;;;;4.93;100.00;97776.25;5050819;28;24443;-73
2021/12/17 09:47:30;;;;;;;9.18;7.88;;;;;;;5.13;100.00;97773.53;5051436;28;24971;-73
2021/12/17 09:49:59;;;;;;;8.20;7.43;;;;;;;5.36;100.00;97760.44;5053148;28;24415;-72
2021/12/17 09:52:26;;;;;;;10.07;7.13;;;;;;;5.23;100.00;97759.72;5051013;28;24423;-73
2021/12/17 09:54:52;;;;;;;8.30;7.50;;;;;;;5.28;100.00;97756.22;5053861;28;24444;-73
2021/12/17 09:57:20;;;;;;;8.40;7.38;;;;;;;5.41;100.00;97758.66;5053658;28;24427;-73
2021/12/17 09:59:48;;;;;;;7.83;7.13;;;;;;;5.75;100.00;97760.00;5050754;28;25043;-73
2021/12/17 10:02:14;;;;;;;9.70;7.22;;;;;;;5.67;100.00;97748.94;5050743;28;24425;-73
2021/12/17 10:04:42;;;;;;;7.30;6.60;;;;;;;5.89;100.00;97746.13;5049677;28;24427;-73
2021/12/17 10:07:21;;;;;;;8.53;7.70;;;;;;;5.91;100.00;97754.69;5050591;28;24613;-73
2021/12/17 10:09:50;;;;;;;8.20;7.40;;;;;;;5.98;100.00;97757.19;5050849;28;24419;-73
2021/12/17 10:12:17;;;;;;;8.97;8.03;;;;;;;6.10;100.00;97758.75;5050918;28;24975;-73
2021/12/17 10:14:58;;;;;;;9.02;7.68;;;;;;;5.86;100.00;97744.47;5050845;28;24956;-73
2021/12/17 10:17:25;;;;;;;9.55;6.95;;;;;;;5.25;100.00;97740.00;5050472;28;24783;-73
2021/12/17 10:19:53;;;;;;;7.67;6.93;;;;;;;5.14;100.00;97742.66;5050837;28;24418;-73
2021/12/17 10:22:23;;;;;;;8.85;7.70;;;;;;;5.03;100.00;97741.91;5051162;28;24502;-73
2021/12/17 10:25:00;;;;;;;8.87;7.73;;;;;;;5.28;100.00;97730.53;5052698;28;24427;-73
2021/12/17 10:27:28;;;;;;;8.48;7.57;;;;;;;4.83;100.00;97724.16;5052691;28;24415;-73
2021/12/17 10:29:56;;;;;;;7.60;6.90;;;;;;;4.83;100.00;97719.84;5052506;28;24450;-73
2021/12/17 10:32:26;;;;;;;7.55;6.78;;;;;;;4.82;100.00;97717.28;5052257;28;24426;-73
2021/12/17 10:35:04;;;;;;;9.45;7.30;;;;;;;4.78;100.00;97718.19;5050729;28;24605;-72
2021/12/17 10:37:37;;;;;;;8.93;6.93;;;;;;;4.84;100.00;97715.56;5050004;28;24781;-73
2021/12/17 10:40:23;;;;;;;7.90;7.20;;;;;;;5.27;100.00;97720.28;5050362;28;24534;-73
2021/12/17 10:42:55;;;;;;;9.85;6.82;;;;;;;5.02;100.00;97715.41;5050313;28;24960;-72
2021/12/17 10:45:26;;;;;;;8.40;7.20;;;;;;;5.09;100.00;97716.19;5050361;28;24415;-73
2021/12/17 10:48:21;;;;;;;8.02;7.22;;;;;;;4.94;100.00;97719.75;5052055;28;24449;-73
2021/12/17 10:50:48;;;;;;;7.60;6.80;;;;;;;5.46;100.00;97713.22;5050588;28;24419;-74
2021/12/17 10:53:16;;;;;;;8.35;7.55;;;;;;;6.03;100.00;97711.66;5056048;28;24538;-73
2021/12/17 10:55:46;;;;;;;8.95;7.43;;;;;;;6.04;100.00;97721.09;5056887;28;24415;-75
2021/12/17 10:58:13;;;;;;;7.53;6.82;;;;;;;6.16;100.00;97727.78;5056487;28;24865;-73
2021/12/17 11:00:47;;;;;;;8.73;7.82;;;;;;;6.51;100.00;97729.84;5053950;28;24446;-73
2021/12/17 11:03:14;;;;;;;8.37;7.47;;;;;;;6.52;100.00;97733.25;5054487;28;24535;-73
2021/12/17 11:05:40;;;;;;;8.13;7.30;;;;;;;5.97;100.00;97736.59;5054301;28;24419;-73
2021/12/17 11:08:28;;;;;;;9.68;7.93;;;;;;;6.12;100.00;97735.56;5054032;28;24428;-73
2021/12/17 11:10:58;;;;;;;7.95;7.15;;;;;;;6.02;100.00;97738.25;5057985;28;24469;-73
2021/12/17 11:13:25;;;;;;;8.32;7.50;;;;;;;5.48;100.00;97729.47;5060484;28;24527;-73
2021/12/17 11:15:52;;;;;;;12.68;8.48;;;;;;;5.32;100.00;97729.63;5056817;28;24454;-73
2021/12/17 11:18:20;;;;;;;8.38;7.57;;;;;;;5.33;100.00;97733.06;5053946;28;24450;-74
2021/12/17 11:20:47;;;;;;;7.90;7.05;;;;;;;5.24;100.00;97736.59;5054108;28;24446;-74
2021/12/17 11:23:16;;;;;;;9.73;7.60;;;;;;;5.66;100.00;97729.25;5056751;28;24496;-73
2021/12/17 11:25:45;;;;;;;8.75;7.65;;;;;;;5.95;100.00;97722.94;5053896;28;24481;-73
2021/12/17 11:28:13;;;;;;;9.10;7.70;;;;;;;5.60;100.00;97724.22;5055207;28;24437;-73
2021/12/17 11:30:41;;;;;;;7.93;7.13;;;;;;;5.36;100.00;97719.34;5054167;28;24419;-74
2021/12/17 11:33:08;;;;;;;8.88;7.97;;;;;;;5.64;100.00;97722.44;5054176;28;24415;-73
2021/12/17 11:35:37;;;;;;;7.18;6.47;;;;;;;6.11;100.00;97724.41;5055951;28;24852;-74
2021/12/17 11:38:07;;;;;;;8.70;7.13;;;;;;;5.81;100.00;97723.91;5053320;28;24426;-75
2021/12/17 11:40:40;;;;;;;8.05;7.18;;;;;;;5.94;100.00;97726.38;5054520;28;24450;-73
2021/12/17 11:43:49;;;;;;;9.13;7.78;;;;;;;5.54;100.00;97725.13;5055473;28;24427;-73
2021/12/17 11:46:16;;;;;;;7.72;6.93;;;;;;;5.67;100.00;97722.38;5054011;28;24968;-75
2021/12/17 11:48:50;;;;;;;7.97;6.88;;;;;;;6.02;100.00;97717.69;5053226;28;24837;-75
2021/12/17 11:51:18;;;;;;;8.15;6.65;;;;;;;5.65;100.00;97713.88;5053464;28;24553;-74
2021/12/17 11:53:58;;;;;;;9.90;7.40;;;;;;;5.95;100.00;97704.94;5054159;28;24972;-73
2021/12/17 11:56:43;;;;;;;8.05;7.05;;;;;;;6.01;100.00;97707.44;5053965;28;24431;-73
2021/12/17 11:59:35;;;;;;;8.00;7.00;;;;;;;6.26;100.00;97701.03;5054084;28;24518;-74
2021/12/17 12:02:05;;;;;;;9.63;6.95;;;;;;;6.28;100.00;97695.88;5054842;28;24447;-74
2021/12/17 12:04:59;;;;;;;8.45;7.72;;;;;;;6.22;100.00;97699.38;5054221;28;24979;-74
2021/12/17 12:07:38;;;;;;;10.25;7.72;;;;;;;6.29;100.00;97706.16;5054372;28;24435;-75
2021/12/17 12:10:21;;;;;;;8.27;7.47;;;;;;;5.98;100.00;97716.03;5053454;28;24418;-73
2021/12/17 12:12:56;;;;;;;7.88;7.18;;;;;;;6.03;100.00;97713.38;5055772;28;25031;-74
2021/12/17 12:15:40;;;;;;;9.88;7.00;;;;;;;5.89;100.00;97710.97;5055163;28;24423;-73
2021/12/17 12:18:16;;;;;;;9.75;7.60;;;;;;;5.46;100.00;97702.97;5052793;28;24434;-74
2021/12/17 12:21:00;;;;;;;8.23;7.30;;;;;;;5.50;100.00;97702.03;5052706;28;24451;-73
2021/12/17 12:23:55;;;;;;;8.48;6.90;;;;;;;5.78;100.00;97706.00;5053269;28;24454;-73
2021/12/17 12:26:40;;;;;;;9.77;7.90;;;;;;;5.47;100.00;97702.06;5020601;28;24442;-75
2021/12/17 12:29:12;;;;;;;15.00;8.27;;;;;;;5.80;100.00;97701.66;5051463;28;24573;-74
2021/12/17 12:31:49;;;;;;;8.88;7.97;;;;;;;5.99;100.00;97699.72;5053902;28;24419;-74
2021/12/17 12:34:17;;;;;;;9.23;8.07;;;;;;;6.02;100.00;97703.97;5057078;28;24522;-74
2021/12/17 12:36:55;;;;;;;11.88;9.57;;;;;;;5.84;100.00;97702.47;5052246;28;24884;-74
2021/12/17 12:39:24;;;;;;;10.50;9.45;;;;;;;5.65;100.00;97706.16;5062069;28;24426;-74
2021/12/17 12:41:59;;;;;;;13.10;9.65;;;;;;;5.71;100.00;97698.34;5058839;28;24443;-73
2021/12/17 12:45:08;;;;;;;11.05;8.90;;;;;;;5.56;100.00;97699.38;5053522;28;24434;-73
2021/12/17 12:47:42;;;;;;;11.30;8.48;;;;;;;5.41;100.00;97695.28;5052820;28;24415;-74
2021/12/17 12:50:10;;;;;;;9.93;8.73;;;;;;;5.47;100.00;97702.94;5052319;28;24507;-74
2021/12/17 12:52:39;;;;;;;12.80;9.23;;;;;;;5.71;100.00;97711.19;5053429;28;24424;-74
2021/12/17 12:55:12;;;;;;;10.85;9.05;;;;;;;5.80;100.00;97708.53;5057603;28;24522;-74
2021/12/17 12:57:40;;;;;;;9.27;8.30;;;;;;;5.43;100.00;97698.69;5054699;28;24426;-75
2021/12/17 13:00:10;;;;;;;9.20;8.07;;;;;;;5.68;100.00;97703.56;5054205;28;24419;-74
2021/12/17 13:02:37;;;;;;;10.73;8.57;;;;;;;5.71;100.00;97693.19;5051980;28;24443;-74
2021/12/17 13:05:07;;;;;;;10.50;8.90;;;;;;;5.66;100.00;97698.41;5051871;28;24411;-74
2021/12/17 13:07:35;;;;;;;11.20;8.25;;;;;;;5.38;100.00;97704.72;5053015;28;24518;-73
2021/12/17 13:10:14;;;;;;;9.77;7.93;;;;;;;5.40;100.00;97697.88;5052538;28;24549;-73
2021/12/17 13:12:47;;;;;;;9.05;8.15;;;;;;;5.43;100.00;97703.84;5052329;28;24427;-73
2021/12/17 13:15:31;;;;;;;8.38;7.45;;;;;;;5.23;100.00;97691.22;5046649;28;24798;-75
2021/12/17 13:21:02;;;;;;;8.80;7.85;;;;;;;5.39;100.00;97680.75;5060413;28;24415;-74
2021/12/17 13:23:30;;;;;;;8.52;7.60;;;;;;;5.14;100.00;97693.03;5055454;28;24883;-74
2021/12/17 13:26:02;;;;;;;8.65;7.80;;;;;;;5.50;100.00;97697.75;5052408;28;24441;-74
2021/12/17 13:28:28;;;;;;;9.20;8.02;;;;;;;5.58;100.00;97701.06;5052416;28;24481;-74
2021/12/17 13:30:55;;;;;;;8.40;7.45;;;;;;;5.64;100.00;97699.31;5051684;28;24444;-73
2021/12/17 13:33:22;;;;;;;8.55;7.75;;;;;;;5.39;100.00;97707.31;5051899;28;24427;-73
2021/12/17 13:35:50;;;;;;;9.32;7.63;;;;;;;5.65;100.00;97704.44;5051744;28;24485;-74
2021/12/17 13:38:16;;;;;;;8.77;7.88;;;;;;;5.60;100.00;97708.78;5052544;28;24530;-73
2021/12/17 13:40:43;;;;;;;14.90;8.65;;;;;;;5.76;100.00;97715.44;5051574;28;24438;-74
2021/12/17 13:43:10;;;;;;;7.57;6.93;;;;;;;5.31;100.00;97719.41;5050449;28;24482;-75
2021/12/17 13:45:36;;;;;;;8.70;7.85;;;;;;;5.34;100.00;97706.53;5050567;28;24458;-74
2021/12/17 13:48:04;;;;;;;8.88;7.90;;;;;;;5.46;100.00;97705.53;5050525;28;24848;-74
2021/12/17 13:50:33;;;;;;;8.45;7.55;;;;;;;5.64;100.00;97717.31;5050596;28;24431;-74
2021/12/17 13:53:04;;;;;;;8.45;7.60;;;;;;;5.66;100.00;97713.00;5054863;28;24435;-74
2021/12/17 13:55:34;;;;;;;9.88;8.45;;;;;;;5.46;100.00;97708.94;5051171;28;24423;-75
2021/12/17 13:58:03;;;;;;;10.80;8.25;;;;;;;5.65;100.00;97711.28;5050559;28;24439;-75